sensor_id;sensor_type;location;lat;lon;timestamp;pressure;altitude;pressure_sealevel;temperature;humidity
79004;BME280;77021;51.052;17.034;2024-03-08T12:44:30;100513.56;;;7.20;47.69
79004;BME280;77021;51.052;17.034;2024-03-08T12:47:17;100507.23;;;7.30;46.62
79004;BME280;77021;51.052;17.034;2024-03-08T12:50:06;100504.02;;;7.32;46.72
79004;BME280;77021;51.052;17.034;2024-03-08T12:52:54;100500.61;;;7.35;47.01
79004;BME280;77021;51.052;17.034;2024-03-08T12:55:45;100495.80;;;7.40;46.66
79004;BME280;77021;51.052;17.034;2024-03-08T12:58:31;100494.05;;;7.47;46.64
79004;BME280;77021;51.052;17.034;2024-03-08T13:01:18;100490.06;;;7.53;46.37
79004;BME280;77021;51.052;17.034;2024-03-08T13:04:05;100491.52;;;7.57;46.41
79004;BME280;77021;51.052;17.034;2024-03-08T13:06:53;100488.84;;;7.59;45.93
79004;BME280;77021;51.052;17.034;2024-03-08T13:09:42;100488.30;;;7.60;45.99
79004;BME280;77021;51.052;17.034;2024-03-08T13:12:30;100481.09;;;7.56;45.07
79004;BME280;77021;51.052;17.034;2024-03-08T13:15:17;100480.95;;;7.55;45.65
79004;BME280;77021;51.052;17.034;2024-03-08T13:18:07;100476.67;;;7.59;46.19
79004;BME280;77021;51.052;17.034;2024-03-08T13:20:56;100471.90;;;7.61;45.68
79004;BME280;77021;51.052;17.034;2024-03-08T13:23:44;100471.40;;;7.60;46.46
79004;BME280;77021;51.052;17.034;2024-03-08T13:26:42;100466.30;;;7.62;45.67
79004;BME280;77021;51.052;17.034;2024-03-08T13:29:29;100469.34;;;7.59;46.10
79004;BME280;77021;51.052;17.034;2024-03-08T13:32:17;100464.08;;;7.60;46.58
79004;BME280;77021;51.052;17.034;2024-03-08T13:35:07;100460.45;;;7.59;45.55
79004;BME280;77021;51.052;17.034;2024-03-08T13:37:58;100456.16;;;7.57;46.15
79004;BME280;77021;51.052;17.034;2024-03-08T13:40:46;100455.52;;;7.55;46.40
79004;BME280;77021;51.052;17.034;2024-03-08T13:43:33;100458.08;;;7.56;45.70
79004;BME280;77021;51.052;17.034;2024-03-08T13:46:23;100454.65;;;7.55;45.89
79004;BME280;77021;51.052;17.034;2024-03-08T13:49:11;100452.65;;;7.57;45.89
79004;BME280;77021;51.052;17.034;2024-03-08T13:51:57;100446.78;;;7.56;45.42
79004;BME280;77021;51.052;17.034;2024-03-08T13:54:46;100447.89;;;7.53;45.57
79004;BME280;77021;51.052;17.034;2024-03-08T13:57:33;100441.84;;;7.52;46.13
79004;BME280;77021;51.052;17.034;2024-03-08T14:00:20;100444.42;;;7.53;47.58
79004;BME280;77021;51.052;17.034;2024-03-08T14:03:10;100438.31;;;7.54;47.40
79004;BME280;77021;51.052;17.034;2024-03-08T14:05:59;100436.42;;;7.52;47.14
79004;BME280;77021;51.052;17.034;2024-03-08T14:08:46;100435.41;;;7.51;46.96
79004;BME280;77021;51.052;17.034;2024-03-08T14:11:33;100432.46;;;7.51;47.37
79004;BME280;77021;51.052;17.034;2024-03-08T14:14:21;100428.38;;;7.54;47.47
79004;BME280;77021;51.052;17.034;2024-03-08T14:17:12;100426.58;;;7.56;46.58
79004;BME280;77021;51.052;17.034;2024-03-08T14:20:06;100428.24;;;7.58;46.80
79004;BME280;77021;51.052;17.034;2024-03-08T14:22:56;100426.41;;;7.61;46.98
79004;BME280;77021;51.052;17.034;2024-03-08T14:25:43;100419.27;;;7.61;47.02
79004;BME280;77021;51.052;17.034;2024-03-08T14:28:29;100420.63;;;7.63;46.96
79004;BME280;77021;51.052;17.034;2024-03-08T14:31:19;100415.21;;;7.63;46.62
79004;BME280;77021;51.052;17.034;2024-03-08T14:34:05;100410.90;;;7.61;46.75
79004;BME280;77021;51.052;17.034;2024-03-08T14:36:56;100411.10;;;7.61;46.41
79004;BME280;77021;51.052;17.034;2024-03-08T14:39:43;100403.69;;;7.58;46.81
79004;BME280;77021;51.052;17.034;2024-03-08T14:42:29;100408.93;;;7.57;46.60
79004;BME280;77021;51.052;17.034;2024-03-08T14:45:16;100406.38;;;7.55;47.02
79004;BME280;77021;51.052;17.034;2024-03-08T14:48:06;100401.54;;;7.54;47.47
79004;BME280;77021;51.052;17.034;2024-03-08T14:50:53;100399.16;;;7.52;47.40
79004;BME280;77021;51.052;17.034;2024-03-08T14:53:42;100397.16;;;7.49;47.76
79004;BME280;77021;51.052;17.034;2024-03-08T15:05:29;100389.36;;;7.34;49.02
79004;BME280;77021;51.052;17.034;2024-03-08T15:08:21;100387.19;;;7.32;49.65
79004;BME280;77021;51.052;17.034;2024-03-08T15:11:09;100385.02;;;7.28;49.39
79004;BME280;77021;51.052;17.034;2024-03-08T15:13:56;100379.93;;;7.23;49.63
79004;BME280;77021;51.052;17.034;2024-03-08T15:16:44;100378.83;;;7.19;49.89
79004;BME280;77021;51.052;17.034;2024-03-08T15:19:33;100377.85;;;7.16;50.17
79004;BME280;77021;51.052;17.034;2024-03-08T15:22:19;100377.63;;;7.11;50.09
79004;BME280;77021;51.052;17.034;2024-03-08T15:25:06;100372.07;;;7.05;50.38
79004;BME280;77021;51.052;17.034;2024-03-08T15:27:57;100372.39;;;6.99;50.73
79004;BME280;77021;51.052;17.034;2024-03-08T15:30:48;100371.30;;;6.95;50.89
79004;BME280;77021;51.052;17.034;2024-03-08T15:33:43;100371.61;;;6.89;51.46
79004;BME280;77021;51.052;17.034;2024-03-08T15:36:35;100375.45;;;6.82;51.68
79004;BME280;77021;51.052;17.034;2024-03-08T15:39:22;100372.86;;;6.74;52.19
79004;BME280;77021;51.052;17.034;2024-03-08T15:42:13;100373.75;;;6.67;52.79
79004;BME280;77021;51.052;17.034;2024-03-08T15:45:01;100374.45;;;6.60;52.96
79004;BME280;77021;51.052;17.034;2024-03-08T15:47:47;100371.52;;;6.52;53.21
79004;BME280;77021;51.052;17.034;2024-03-08T15:50:34;100376.25;;;6.44;53.22
79004;BME280;77021;51.052;17.034;2024-03-08T15:53:21;100373.11;;;6.37;53.60
79004;BME280;77021;51.052;17.034;2024-03-08T15:56:12;100375.73;;;6.29;54.13
79004;BME280;77021;51.052;17.034;2024-03-08T15:59:00;100372.46;;;6.20;54.41
79004;BME280;77021;51.052;17.034;2024-03-08T16:01:51;100372.15;;;6.11;54.84
79004;BME280;77021;51.052;17.034;2024-03-08T16:04:38;100374.59;;;6.03;55.49
79004;BME280;77021;51.052;17.034;2024-03-08T16:07:25;100374.75;;;5.96;55.76
79004;BME280;77021;51.052;17.034;2024-03-08T16:10:16;100377.64;;;5.89;56.11
79004;BME280;77021;51.052;17.034;2024-03-08T16:13:03;100375.23;;;5.80;56.45
79004;BME280;77021;51.052;17.034;2024-03-08T16:15:55;100370.91;;;5.71;56.67
79004;BME280;77021;51.052;17.034;2024-03-08T16:19:07;100367.83;;;5.61;56.72
79004;BME280;77021;51.052;17.034;2024-03-08T16:21:55;100368.96;;;5.48;56.96
79004;BME280;77021;51.052;17.034;2024-03-08T16:24:44;100368.75;;;5.33;57.48
79004;BME280;77021;51.052;17.034;2024-03-08T16:27:31;100372.15;;;5.19;58.54
79004;BME280;77021;51.052;17.034;2024-03-08T16:30:24;100371.63;;;5.10;58.38
79004;BME280;77021;51.052;17.034;2024-03-08T16:33:14;100367.29;;;5.01;58.36
79004;BME280;77021;51.052;17.034;2024-03-08T16:36:05;100366.08;;;4.91;58.61
79004;BME280;77021;51.052;17.034;2024-03-08T16:38:51;100366.27;;;4.80;59.16
79004;BME280;77021;51.052;17.034;2024-03-08T16:41:38;100366.81;;;4.70;59.64
79004;BME280;77021;51.052;17.034;2024-03-08T16:44:26;100366.67;;;4.58;59.83
79004;BME280;77021;51.052;17.034;2024-03-08T16:51:48;100365.21;;;4.20;61.01
79004;BME280;77021;51.052;17.034;2024-03-08T16:54:35;100363.66;;;4.07;61.28
79004;BME280;77021;51.052;17.034;2024-03-08T16:57:37;100367.41;;;3.99;61.75
79004;BME280;77021;51.052;17.034;2024-03-08T17:00:26;100364.38;;;3.93;61.85
79004;BME280;77021;51.052;17.034;2024-03-08T17:03:16;100365.02;;;3.86;62.10
79004;BME280;77021;51.052;17.034;2024-03-08T17:06:03;100366.33;;;3.78;62.46
79004;BME280;77021;51.052;17.034;2024-03-08T17:08:52;100366.80;;;3.70;62.69
79004;BME280;77021;51.052;17.034;2024-03-08T17:11:40;100364.63;;;3.63;63.12
79004;BME280;77021;51.052;17.034;2024-03-08T17:18:10;100365.71;;;3.45;63.89
79004;BME280;77021;51.052;17.034;2024-03-08T17:20:58;100369.77;;;3.38;64.40
79004;BME280;77021;51.052;17.034;2024-03-08T17:23:47;100368.45;;;3.34;65.22
79004;BME280;77021;51.052;17.034;2024-03-08T17:26:33;100372.98;;;3.32;65.60
79004;BME280;77021;51.052;17.034;2024-03-08T17:29:20;100371.78;;;3.30;65.71
79004;BME280;77021;51.052;17.034;2024-03-08T17:36:56;100369.20;;;3.14;65.99
79004;BME280;77021;51.052;17.034;2024-03-08T17:39:44;100368.57;;;3.08;66.05
79004;BME280;77021;51.052;17.034;2024-03-08T17:42:31;100363.95;;;3.02;66.38
79004;BME280;77021;51.052;17.034;2024-03-08T17:45:22;100363.81;;;2.99;66.36
79004;BME280;77021;51.052;17.034;2024-03-08T17:48:10;100363.17;;;2.93;66.42
79004;BME280;77021;51.052;17.034;2024-03-08T17:51:00;100361.20;;;2.86;66.28
79004;BME280;77021;51.052;17.034;2024-03-08T17:53:48;100365.59;;;2.78;66.22
79004;BME280;77021;51.052;17.034;2024-03-08T17:56:38;100360.64;;;2.70;66.89
79004;BME280;77021;51.052;17.034;2024-03-08T17:59:26;100362.44;;;2.64;67.04
79004;BME280;77021;51.052;17.034;2024-03-08T18:02:14;100359.89;;;2.59;67.23
79004;BME280;77021;51.052;17.034;2024-03-08T18:05:00;100358.02;;;2.55;67.65
79004;BME280;77021;51.052;17.034;2024-03-08T18:11:01;100357.23;;;2.46;68.04
79004;BME280;77021;51.052;17.034;2024-03-08T18:13:50;100356.42;;;2.38;68.13
79004;BME280;77021;51.052;17.034;2024-03-08T18:16:38;100361.66;;;2.35;68.21
79004;BME280;77021;51.052;17.034;2024-03-08T18:19:25;100360.83;;;2.30;68.39
79004;BME280;77021;51.052;17.034;2024-03-08T18:22:12;100359.14;;;2.24;68.66
79004;BME280;77021;51.052;17.034;2024-03-08T18:24:59;100356.93;;;2.20;68.53
79004;BME280;77021;51.052;17.034;2024-03-08T18:27:45;100352.83;;;2.12;68.58
79004;BME280;77021;51.052;17.034;2024-03-08T18:30:32;100357.55;;;2.06;68.78
79004;BME280;77021;51.052;17.034;2024-03-08T18:33:19;100359.14;;;1.99;68.89
79004;BME280;77021;51.052;17.034;2024-03-08T18:36:09;100361.96;;;1.90;69.46
79004;BME280;77021;51.052;17.034;2024-03-08T18:39:02;100357.53;;;1.81;69.13
79004;BME280;77021;51.052;17.034;2024-03-08T18:41:51;100354.48;;;1.72;70.06
79004;BME280;77021;51.052;17.034;2024-03-08T18:44:37;100353.45;;;1.70;70.48
79004;BME280;77021;51.052;17.034;2024-03-08T18:47:24;100348.96;;;1.70;70.46
79004;BME280;77021;51.052;17.034;2024-03-08T18:50:14;100351.73;;;1.68;70.34
79004;BME280;77021;51.052;17.034;2024-03-08T18:53:02;100348.66;;;1.63;70.19
79004;BME280;77021;51.052;17.034;2024-03-08T18:55:51;100343.15;;;1.59;70.73
79004;BME280;77021;51.052;17.034;2024-03-08T18:58:38;100342.67;;;1.53;71.14
79004;BME280;77021;51.052;17.034;2024-03-08T19:01:32;100343.55;;;1.49;71.38
79004;BME280;77021;51.052;17.034;2024-03-08T19:04:25;100339.92;;;1.50;71.32
79004;BME280;77021;51.052;17.034;2024-03-08T19:07:12;100335.77;;;1.54;71.46
79004;BME280;77021;51.052;17.034;2024-03-08T19:09:58;100333.86;;;1.55;71.50
79004;BME280;77021;51.052;17.034;2024-03-08T19:12:50;100334.20;;;1.57;71.63
79004;BME280;77021;51.052;17.034;2024-03-08T19:15:37;100332.30;;;1.56;71.15
79004;BME280;77021;51.052;17.034;2024-03-08T19:18:25;100333.52;;;1.54;71.41
79004;BME280;77021;51.052;17.034;2024-03-08T19:21:13;100335.23;;;1.53;71.62
79004;BME280;77021;51.052;17.034;2024-03-08T19:24:00;100331.10;;;1.55;71.70
79004;BME280;77021;51.052;17.034;2024-03-08T19:26:50;100330.09;;;1.52;71.79
79004;BME280;77021;51.052;17.034;2024-03-08T19:29:37;100331.30;;;1.49;71.41
79004;BME280;77021;51.052;17.034;2024-03-08T19:32:24;100333.23;;;1.43;71.57
79004;BME280;77021;51.052;17.034;2024-03-08T19:35:12;100330.32;;;1.38;71.69
79004;BME280;77021;51.052;17.034;2024-03-08T19:37:59;100326.55;;;1.32;71.54
79004;BME280;77021;51.052;17.034;2024-03-08T19:40:46;100329.00;;;1.26;71.91
79004;BME280;77021;51.052;17.034;2024-03-08T19:43:34;100326.94;;;1.21;72.14
79004;BME280;77021;51.052;17.034;2024-03-08T19:46:21;100323.85;;;1.19;72.44
79004;BME280;77021;51.052;17.034;2024-03-08T19:49:08;100323.34;;;1.17;72.38
79004;BME280;77021;51.052;17.034;2024-03-08T19:51:54;100320.27;;;1.08;72.12
79004;BME280;77021;51.052;17.034;2024-03-08T19:54:42;100319.96;;;0.98;71.63
79004;BME280;77021;51.052;17.034;2024-03-08T19:57:28;100317.23;;;0.89;72.04
79004;BME280;77021;51.052;17.034;2024-03-08T20:00:18;100312.77;;;0.80;72.37
79004;BME280;77021;51.052;17.034;2024-03-08T20:03:13;100310.90;;;0.69;72.86
79004;BME280;77021;51.052;17.034;2024-03-08T20:06:09;100309.36;;;0.61;73.07
79004;BME280;77021;51.052;17.034;2024-03-08T20:08:58;100304.05;;;0.51;73.27
79004;BME280;77021;51.052;17.034;2024-03-08T20:11:45;100306.11;;;0.48;73.60
79004;BME280;77021;51.052;17.034;2024-03-08T20:14:32;100305.25;;;0.51;73.82
79004;BME280;77021;51.052;17.034;2024-03-08T20:17:18;100297.67;;;0.54;73.83
79004;BME280;77021;51.052;17.034;2024-03-08T20:20:07;100297.50;;;0.54;74.04
79004;BME280;77021;51.052;17.034;2024-03-08T20:23:01;100296.13;;;0.49;74.02
79004;BME280;77021;51.052;17.034;2024-03-08T20:25:51;100291.83;;;0.42;74.04
79004;BME280;77021;51.052;17.034;2024-03-08T20:28:39;100291.83;;;0.37;74.32
79004;BME280;77021;51.052;17.034;2024-03-08T20:31:29;100293.40;;;0.35;74.51
79004;BME280;77021;51.052;17.034;2024-03-08T20:34:17;100295.29;;;0.34;74.69
79004;BME280;77021;51.052;17.034;2024-03-08T20:37:04;100294.94;;;0.32;74.88
79004;BME280;77021;51.052;17.034;2024-03-08T20:39:55;100293.23;;;0.30;74.80
79004;BME280;77021;51.052;17.034;2024-03-08T20:42:42;100293.91;;;0.25;75.02
79004;BME280;77021;51.052;17.034;2024-03-08T20:45:30;100294.77;;;0.23;75.01
79004;BME280;77021;51.052;17.034;2024-03-08T20:48:18;100287.54;;;0.25;75.25
79004;BME280;77021;51.052;17.034;2024-03-08T20:51:08;100288.92;;;0.25;75.20
79004;BME280;77021;51.052;17.034;2024-03-08T20:54:00;100290.64;;;0.27;75.45
79004;BME280;77021;51.052;17.034;2024-03-08T20:56:53;100287.19;;;0.28;75.33
79004;BME280;77021;51.052;17.034;2024-03-08T20:59:40;100283.75;;;0.26;75.14
79004;BME280;77021;51.052;17.034;2024-03-08T21:02:28;100281.52;;;0.25;75.33
79004;BME280;77021;51.052;17.034;2024-03-08T21:05:15;100277.38;;;0.27;75.43
79004;BME280;77021;51.052;17.034;2024-03-08T21:08:06;100273.59;;;0.29;75.62
79004;BME280;77021;51.052;17.034;2024-03-08T21:10:55;100272.05;;;0.27;75.20
79004;BME280;77021;51.052;17.034;2024-03-08T21:13:43;100269.48;;;0.23;75.64
79004;BME280;77021;51.052;17.034;2024-03-08T21:16:30;100269.83;;;0.21;75.71
79004;BME280;77021;51.052;17.034;2024-03-08T21:19:17;100265.86;;;0.23;76.01
79004;BME280;77021;51.052;17.034;2024-03-08T21:22:04;100264.13;;;0.25;75.67
79004;BME280;77021;51.052;17.034;2024-03-08T21:24:50;100264.13;;;0.27;75.78
79004;BME280;77021;51.052;17.034;2024-03-08T21:27:37;100260.34;;;0.26;75.83
79004;BME280;77021;51.052;17.034;2024-03-08T21:30:23;100261.38;;;0.26;76.00
79004;BME280;77021;51.052;17.034;2024-03-08T21:33:20;100256.38;;;0.28;76.06
79004;BME280;77021;51.052;17.034;2024-03-08T21:36:07;100254.14;;;0.30;75.85
79004;BME280;77021;51.052;17.034;2024-03-08T21:38:55;100254.66;;;0.32;75.86
79004;BME280;77021;51.052;17.034;2024-03-08T21:41:42;100253.96;;;0.34;76.09
79004;BME280;77021;51.052;17.034;2024-03-08T21:44:29;100256.38;;;0.36;76.14
79004;BME280;77021;51.052;17.034;2024-03-08T21:47:17;100254.99;;;0.36;75.85
79004;BME280;77021;51.052;17.034;2024-03-08T21:50:06;100254.13;;;0.36;75.79
79004;BME280;77021;51.052;17.034;2024-03-08T21:52:56;100248.95;;;0.37;75.70
79004;BME280;77021;51.052;17.034;2024-03-08T21:55:44;100246.55;;;0.36;75.70
79004;BME280;77021;51.052;17.034;2024-03-08T21:58:32;100245.18;;;0.35;76.06
79004;BME280;77021;51.052;17.034;2024-03-08T22:01:21;100244.83;;;0.35;76.14
79004;BME280;77021;51.052;17.034;2024-03-08T22:04:10;100243.63;;;0.37;75.99
79004;BME280;77021;51.052;17.034;2024-03-08T22:06:57;100239.66;;;0.39;76.11
79004;BME280;77021;51.052;17.034;2024-03-08T22:09:46;100241.03;;;0.37;75.85
79004;BME280;77021;51.052;17.034;2024-03-08T22:12:33;100240.02;;;0.31;75.87
79004;BME280;77021;51.052;17.034;2024-03-08T22:15:21;100240.38;;;0.27;75.92
79004;BME280;77021;51.052;17.034;2024-03-08T22:18:09;100242.61;;;0.25;76.24
79004;BME280;77021;51.052;17.034;2024-03-08T22:20:59;100243.98;;;0.25;76.13
79004;BME280;77021;51.052;17.034;2024-03-08T22:23:46;100241.92;;;0.23;76.35
79004;BME280;77021;51.052;17.034;2024-03-08T22:26:34;100239.86;;;0.20;76.15
79004;BME280;77021;51.052;17.034;2024-03-08T22:29:26;100231.44;;;0.16;76.19
79004;BME280;77021;51.052;17.034;2024-03-08T22:32:13;100230.23;;;0.14;76.73
79004;BME280;77021;51.052;17.034;2024-03-08T22:35:00;100230.41;;;0.14;76.85
79004;BME280;77021;51.052;17.034;2024-03-08T22:37:49;100225.23;;;0.14;77.16
79004;BME280;77021;51.052;17.034;2024-03-08T22:40:36;100224.02;;;0.18;77.37
79004;BME280;77021;51.052;17.034;2024-03-08T22:43:23;100224.36;;;0.22;77.30
79004;BME280;77021;51.052;17.034;2024-03-08T22:46:11;100220.92;;;0.24;77.04
79004;BME280;77021;51.052;17.034;2024-03-08T22:48:57;100219.20;;;0.24;77.29
79004;BME280;77021;51.052;17.034;2024-03-08T22:51:44;100214.20;;;0.27;77.45
79004;BME280;77021;51.052;17.034;2024-03-08T22:54:31;100214.36;;;0.30;77.37
79004;BME280;77021;51.052;17.034;2024-03-08T22:57:19;100210.58;;;0.31;77.17
79004;BME280;77021;51.052;17.034;2024-03-08T23:00:07;100211.27;;;0.30;77.15
79004;BME280;77021;51.052;17.034;2024-03-08T23:03:04;100208.50;;;0.30;77.03
79004;BME280;77021;51.052;17.034;2024-03-08T23:05:56;100207.65;;;0.30;76.89
79004;BME280;77021;51.052;17.034;2024-03-08T23:08:45;100204.05;;;0.27;76.72
79004;BME280;77021;51.052;17.034;2024-03-08T23:11:32;100203.36;;;0.24;77.15
79004;BME280;77021;51.052;17.034;2024-03-08T23:14:19;100204.91;;;0.23;76.81
79004;BME280;77021;51.052;17.034;2024-03-08T23:17:05;100203.70;;;0.22;77.05
79004;BME280;77021;51.052;17.034;2024-03-08T23:19:55;100205.61;;;0.19;76.99
79004;BME280;77021;51.052;17.034;2024-03-08T23:22:45;100202.70;;;0.15;77.02
79004;BME280;77021;51.052;17.034;2024-03-08T23:25:34;100199.43;;;0.11;77.22
79004;BME280;77021;51.052;17.034;2024-03-08T23:28:22;100198.23;;;0.08;77.23
79004;BME280;77021;51.052;17.034;2024-03-08T23:31:09;100197.19;;;0.06;77.43
79004;BME280;77021;51.052;17.034;2024-03-08T23:33:56;100195.99;;;0.03;77.51
79004;BME280;77021;51.052;17.034;2024-03-08T23:36:42;100196.01;;;0.01;77.38
79004;BME280;77021;51.052;17.034;2024-03-08T23:39:29;100194.11;;;0.01;77.37
79004;BME280;77021;51.052;17.034;2024-03-08T23:42:16;100194.27;;;-0.01;77.28
79004;BME280;77021;51.052;17.034;2024-03-08T23:45:08;100196.19;;;-0.03;77.42
79004;BME280;77021;51.052;17.034;2024-03-08T23:48:00;100192.41;;;-0.08;77.28
79004;BME280;77021;51.052;17.034;2024-03-08T23:50:47;100188.27;;;-0.14;77.42
79004;BME280;77021;51.052;17.034;2024-03-08T23:53:34;100187.59;;;-0.16;77.72
79004;BME280;77021;51.052;17.034;2024-03-08T23:56:22;100188.45;;;-0.17;77.90
79004;BME280;77021;51.052;17.034;2024-03-08T23:59:10;100185.35;;;-0.18;77.99
